Darby, MT

6:43 AM MDT on August 23, 2014 (GMT -0600)
Lemhi County | Change Station
CLOSE
Current Station
Airport
Location: Salmon,
Elevation: 4045 ft
Nearby Weather Stations

Elev 4045 ft 45.12 °N, 113.88 °W | Updated 8 minutes ago

Overcast
Overcast
52 °F
Feels Like 52 °F
N
0
Wind Variable Wind from North

Today
High -- | Low -- °F
--% Chance of Precip.
Yesterday
High -- | Low -- °F
Precip. -- in
6:46 AM 8:31 PM
Waning Crescent, 4% visible
Pressure 30.05 in
Visibility 10.0 miles
Clouds Few 3100 ft
Overcast 5000 ft
Dew Point 48 °F
Humidity 88%
Rainfall 0.45 in
Snow Depth Not available.
UV 0 out of 12
Pollen 3.20 out of 12
Air Quality Not available.
Flu Activity Not available.
METAR KSMN 231235Z AUTO 00000KT 10SM FEW031 OVC050 11/09 A3005 RMK AO1 P0006

More Conditions Fewer Conditions

Pressure 30.05 in
Visibility 10.0 miles
Clouds Few 3100 ft
Overcast 5000 ft
Dew Point 48 °F
Humidity 88%
Rainfall 0.45 in
Snow Depth Not available.
UV 0 out of 12
Pollen 3.20 out of 12
Air Quality Not available.
Flu Activity Not available.
METAR KSMN 231235Z AUTO 00000KT 10SM FEW031 OVC050 11/09 A3005 RMK AO1 P0006

More Conditions Fewer Conditions

10-Day Weather Forecast

Almanac

Astronomy

Aug. 23, 2014 Rise Set
Actual Time 6:46 AM MDT 8:31 PM MDT
Civil Twilight 6:14 AM MDT 9:02 PM MDT
Nautical Twilight 5:35 AM MDT 9:41 PM MDT
Astronomical Twilight 4:53 AM MDT 10:23 PM MDT
Moon 5:04 AM MDT 7:18 PM MDT
Length of Visible Light 14h 48m
Length of Day
13h 45m
Tomorrow will be 3m 2s shorter.
Waning Crescent, 4% of the Moon is Illuminated
Today
Waning Crescent
Aug 25
New
Sep 2
First Quarter
Sep 8
Full
Sep 15
Last Quarter

Today's Extremes

State Highs State Lows

Community

WunderPhotos

Upload Photos

1,746,435 photos uploaded!

WunderBlogs® & News

By Dr. Jeff Masters
Director of Meteorology, Weather Underground
By Kari Strenfel
Meteorologist, Weather Underground
By Christopher C. Burt
Weather Historian, Weather Underground
August 23, 2014
August 23, 2014
August 23, 2014

Nearby

Snow Depth

Station Depth Elevation
Daly Creek 2 in 5780 ft
Skalkaho Summit 0 in 7250 ft
Calvert Creek 0 in 6430 ft
Peterson Meadows 1 in 7200 ft
Black Pine 0 in 7210 ft

Earthquake Activity

City Distance Mag. Time & Date
No recent earthquake activity has been reported nearby.
Minimum magnitude displayed is 2.5.

Coastal Water Temperatures

Place Temperature
No Stations Reporting

Nearby Weather Stations